sensor_id;sensor_type;location;lat;lon;timestamp;temperature;humidity
7934;DHT22;4012;48.896;9.192;2023-06-04T00:00:25;17.50;99.90
7934;DHT22;4012;48.896;9.192;2023-06-04T00:02:51;17.40;99.90
7934;DHT22;4012;48.896;9.192;2023-06-04T00:05:16;17.40;99.90
7934;DHT22;4012;48.896;9.192;2023-06-04T00:07:42;17.40;99.90
7934;DHT22;4012;48.896;9.192;2023-06-04T00:10:08;17.30;99.90
7934;DHT22;4012;48.896;9.192;2023-06-04T00:12:34;17.30;99.90
7934;DHT22;4012;48.896;9.192;2023-06-04T00:14:59;17.30;99.90
7934;DHT22;4012;48.896;9.192;2023-06-04T00:17:25;17.20;99.90
7934;DHT22;4012;48.896;9.192;2023-06-04T00:19:51;17.10;99.90
7934;DHT22;4012;48.896;9.192;2023-06-04T00:22:16;17.10;99.90
7934;DHT22;4012;48.896;9.192;2023-06-04T00:24:42;17.00;99.90
7934;DHT22;4012;48.896;9.192;2023-06-04T00:27:08;17.10;99.90
7934;DHT22;4012;48.896;9.192;2023-06-04T00:29:34;17.10;99.90
7934;DHT22;4012;48.896;9.192;2023-06-04T00:32:00;17.00;99.90
7934;DHT22;4012;48.896;9.192;2023-06-04T00:34:25;16.90;99.90
7934;DHT22;4012;48.896;9.192;2023-06-04T00:36:51;16.90;99.90
7934;DHT22;4012;48.896;9.192;2023-06-04T00:39:17;16.80;99.90
7934;DHT22;4012;48.896;9.192;2023-06-04T00:41:42;16.80;99.90
7934;DHT22;4012;48.896;9.192;2023-06-04T00:44:08;16.70;99.90
7934;DHT22;4012;48.896;9.192;2023-06-04T00:46:35;16.60;99.90
7934;DHT22;4012;48.896;9.192;2023-06-04T00:49:01;16.50;99.90
7934;DHT22;4012;48.896;9.192;2023-06-04T00:51:29;16.50;99.90
7934;DHT22;4012;48.896;9.192;2023-06-04T00:53:55;16.50;99.90
7934;DHT22;4012;48.896;9.192;2023-06-04T00:56:21;16.60;99.90
7934;DHT22;4012;48.896;9.192;2023-06-04T00:58:47;16.50;99.90
7934;DHT22;4012;48.896;9.192;2023-06-04T01:01:20;16.50;99.90
7934;DHT22;4012;48.896;9.192;2023-06-04T01:03:50;16.50;99.90
7934;DHT22;4012;48.896;9.192;2023-06-04T01:09:14;16.40;99.90
7934;DHT22;4012;48.896;9.192;2023-06-04T01:11:40;16.40;99.90
7934;DHT22;4012;48.896;9.192;2023-06-04T01:14:08;16.20;99.90
7934;DHT22;4012;48.896;9.192;2023-06-04T01:17:08;16.20;99.90
7934;DHT22;4012;48.896;9.192;2023-06-04T01:22:17;16.20;99.90
7934;DHT22;4012;48.896;9.192;2023-06-04T01:24:53;16.20;99.90
7934;DHT22;4012;48.896;9.192;2023-06-04T01:27:22;16.20;99.90
7934;DHT22;4012;48.896;9.192;2023-06-04T01:29:48;16.20;99.90
7934;DHT22;4012;48.896;9.192;2023-06-04T01:32:15;16.10;99.90
7934;DHT22;4012;48.896;9.192;2023-06-04T01:34:48;16.00;99.90
7934;DHT22;4012;48.896;9.192;2023-06-04T01:37:13;16.00;99.90
7934;DHT22;4012;48.896;9.192;2023-06-04T01:39:39;15.90;99.90
7934;DHT22;4012;48.896;9.192;2023-06-04T01:42:05;15.90;99.90
7934;DHT22;4012;48.896;9.192;2023-06-04T01:44:30;16.00;99.90
7934;DHT22;4012;48.896;9.192;2023-06-04T01:46:56;15.90;99.90
7934;DHT22;4012;48.896;9.192;2023-06-04T01:49:22;15.90;99.90
7934;DHT22;4012;48.896;9.192;2023-06-04T01:51:47;15.90;99.90
7934;DHT22;4012;48.896;9.192;2023-06-04T01:54:13;15.80;99.90
7934;DHT22;4012;48.896;9.192;2023-06-04T01:56:38;15.70;99.90
7934;DHT22;4012;48.896;9.192;2023-06-04T01:59:04;15.70;99.90
7934;DHT22;4012;48.896;9.192;2023-06-04T02:01:30;15.60;99.90
7934;DHT22;4012;48.896;9.192;2023-06-04T02:03:55;15.60;99.90
7934;DHT22;4012;48.896;9.192;2023-06-04T02:06:21;15.60;99.90
7934;DHT22;4012;48.896;9.192;2023-06-04T02:08:46;15.60;99.90
7934;DHT22;4012;48.896;9.192;2023-06-04T02:11:12;15.50;99.90
7934;DHT22;4012;48.896;9.192;2023-06-04T02:13:37;15.50;99.90
7934;DHT22;4012;48.896;9.192;2023-06-04T02:16:03;15.50;99.90
7934;DHT22;4012;48.896;9.192;2023-06-04T02:18:29;15.40;99.90
7934;DHT22;4012;48.896;9.192;2023-06-04T02:20:56;15.40;99.90
7934;DHT22;4012;48.896;9.192;2023-06-04T02:23:21;15.30;99.90
7934;DHT22;4012;48.896;9.192;2023-06-04T02:25:47;15.30;99.90
7934;DHT22;4012;48.896;9.192;2023-06-04T02:28:15;15.30;99.90
7934;DHT22;4012;48.896;9.192;2023-06-04T02:30:41;15.30;99.90
7934;DHT22;4012;48.896;9.192;2023-06-04T02:33:06;15.20;99.90
7934;DHT22;4012;48.896;9.192;2023-06-04T02:35:35;15.20;99.90
7934;DHT22;4012;48.896;9.192;2023-06-04T02:38:01;15.10;99.90
7934;DHT22;4012;48.896;9.192;2023-06-04T02:40:27;15.10;99.90
7934;DHT22;4012;48.896;9.192;2023-06-04T02:42:53;15.10;99.90
7934;DHT22;4012;48.896;9.192;2023-06-04T02:45:19;15.10;99.90
7934;DHT22;4012;48.896;9.192;2023-06-04T02:47:45;14.90;99.90
7934;DHT22;4012;48.896;9.192;2023-06-04T02:50:11;14.90;99.90
7934;DHT22;4012;48.896;9.192;2023-06-04T02:52:37;14.90;99.90
7934;DHT22;4012;48.896;9.192;2023-06-04T02:55:07;14.90;99.90
7934;DHT22;4012;48.896;9.192;2023-06-04T02:57:33;14.90;99.90
7934;DHT22;4012;48.896;9.192;2023-06-04T03:00:03;14.90;99.90
7934;DHT22;4012;48.896;9.192;2023-06-04T03:02:39;14.90;99.90
7934;DHT22;4012;48.896;9.192;2023-06-04T03:05:05;14.90;99.90
7934;DHT22;4012;48.896;9.192;2023-06-04T03:07:31;14.80;99.90
7934;DHT22;4012;48.896;9.192;2023-06-04T03:09:57;14.80;99.90
7934;DHT22;4012;48.896;9.192;2023-06-04T03:12:23;14.80;99.90
7934;DHT22;4012;48.896;9.192;2023-06-04T03:14:48;14.80;99.90
7934;DHT22;4012;48.896;9.192;2023-06-04T03:17:14;14.70;99.90
7934;DHT22;4012;48.896;9.192;2023-06-04T03:19:41;14.70;99.90
7934;DHT22;4012;48.896;9.192;2023-06-04T03:22:08;14.60;99.90
7934;DHT22;4012;48.896;9.192;2023-06-04T03:24:35;14.60;99.90
7934;DHT22;4012;48.896;9.192;2023-06-04T03:27:02;14.50;99.90
7934;DHT22;4012;48.896;9.192;2023-06-04T03:29:28;14.50;99.90
7934;DHT22;4012;48.896;9.192;2023-06-04T03:31:54;14.50;99.90
7934;DHT22;4012;48.896;9.192;2023-06-04T03:34:19;14.50;99.90
7934;DHT22;4012;48.896;9.192;2023-06-04T03:36:45;14.50;99.90
7934;DHT22;4012;48.896;9.192;2023-06-04T03:39:11;14.50;99.90
7934;DHT22;4012;48.896;9.192;2023-06-04T03:41:36;14.40;99.90
7934;DHT22;4012;48.896;9.192;2023-06-04T03:44:02;14.30;99.90
7934;DHT22;4012;48.896;9.192;2023-06-04T03:46:28;14.40;99.90
7934;DHT22;4012;48.896;9.192;2023-06-04T03:48:57;14.30;99.90
7934;DHT22;4012;48.896;9.192;2023-06-04T03:51:23;14.30;99.90
7934;DHT22;4012;48.896;9.192;2023-06-04T03:53:48;14.40;99.90
7934;DHT22;4012;48.896;9.192;2023-06-04T03:56:14;14.30;99.90
7934;DHT22;4012;48.896;9.192;2023-06-04T03:58:39;14.30;99.90
7934;DHT22;4012;48.896;9.192;2023-06-04T04:01:05;14.40;99.90
7934;DHT22;4012;48.896;9.192;2023-06-04T04:03:33;14.30;99.90
7934;DHT22;4012;48.896;9.192;2023-06-04T04:06:00;14.30;99.90
7934;DHT22;4012;48.896;9.192;2023-06-04T04:08:26;14.30;99.90
7934;DHT22;4012;48.896;9.192;2023-06-04T04:10:55;14.10;99.90
7934;DHT22;4012;48.896;9.192;2023-06-04T04:13:21;14.20;99.90
7934;DHT22;4012;48.896;9.192;2023-06-04T04:15:46;14.20;99.90
7934;DHT22;4012;48.896;9.192;2023-06-04T04:18:12;14.20;99.90
7934;DHT22;4012;48.896;9.192;2023-06-04T04:20:38;14.30;99.90
7934;DHT22;4012;48.896;9.192;2023-06-04T04:23:04;14.30;99.90
7934;DHT22;4012;48.896;9.192;2023-06-04T04:25:31;14.30;99.90
7934;DHT22;4012;48.896;9.192;2023-06-04T04:27:57;14.40;99.90
7934;DHT22;4012;48.896;9.192;2023-06-04T04:30:25;14.40;99.90
7934;DHT22;4012;48.896;9.192;2023-06-04T04:32:51;14.50;99.90
7934;DHT22;4012;48.896;9.192;2023-06-04T04:35:17;14.50;99.90
7934;DHT22;4012;48.896;9.192;2023-06-04T04:37:44;14.50;99.90
7934;DHT22;4012;48.896;9.192;2023-06-04T04:40:10;14.50;99.90
7934;DHT22;4012;48.896;9.192;2023-06-04T04:42:37;14.80;99.90
7934;DHT22;4012;48.896;9.192;2023-06-04T04:45:03;14.70;99.90
7934;DHT22;4012;48.896;9.192;2023-06-04T04:47:29;14.80;99.90
7934;DHT22;4012;48.896;9.192;2023-06-04T04:49:54;14.80;99.90
7934;DHT22;4012;48.896;9.192;2023-06-04T04:52:20;14.90;99.90
7934;DHT22;4012;48.896;9.192;2023-06-04T04:54:45;14.70;99.90
7934;DHT22;4012;48.896;9.192;2023-06-04T04:57:11;14.70;99.90
7934;DHT22;4012;48.896;9.192;2023-06-04T04:59:37;14.80;99.90
7934;DHT22;4012;48.896;9.192;2023-06-04T05:02:02;14.80;99.90
7934;DHT22;4012;48.896;9.192;2023-06-04T05:04:28;14.80;99.90
7934;DHT22;4012;48.896;9.192;2023-06-04T05:06:53;14.80;99.90
7934;DHT22;4012;48.896;9.192;2023-06-04T05:09:19;14.70;99.90
7934;DHT22;4012;48.896;9.192;2023-06-04T05:11:44;14.80;99.90
7934;DHT22;4012;48.896;9.192;2023-06-04T05:14:10;14.70;99.90
7934;DHT22;4012;48.896;9.192;2023-06-04T05:16:37;14.70;99.90
7934;DHT22;4012;48.896;9.192;2023-06-04T05:19:03;14.80;99.90
7934;DHT22;4012;48.896;9.192;2023-06-04T05:21:29;14.80;99.90
7934;DHT22;4012;48.896;9.192;2023-06-04T05:23:55;14.90;99.90
7934;DHT22;4012;48.896;9.192;2023-06-04T05:26:21;15.00;99.90
7934;DHT22;4012;48.896;9.192;2023-06-04T05:28:51;15.00;99.90
7934;DHT22;4012;48.896;9.192;2023-06-04T05:31:16;15.00;99.90
7934;DHT22;4012;48.896;9.192;2023-06-04T05:33:43;15.00;99.90
7934;DHT22;4012;48.896;9.192;2023-06-04T05:36:09;15.20;99.90
7934;DHT22;4012;48.896;9.192;2023-06-04T05:38:35;15.30;99.90
7934;DHT22;4012;48.896;9.192;2023-06-04T05:41:01;15.30;99.90
7934;DHT22;4012;48.896;9.192;2023-06-04T05:43:27;15.30;99.90
7934;DHT22;4012;48.896;9.192;2023-06-04T05:45:53;15.30;99.90
7934;DHT22;4012;48.896;9.192;2023-06-04T05:48:18;15.10;99.90
7934;DHT22;4012;48.896;9.192;2023-06-04T05:50:44;15.10;99.90
7934;DHT22;4012;48.896;9.192;2023-06-04T05:53:10;15.00;99.90
7934;DHT22;4012;48.896;9.192;2023-06-04T05:55:36;15.10;99.90
7934;DHT22;4012;48.896;9.192;2023-06-04T05:58:01;15.30;99.90
7934;DHT22;4012;48.896;9.192;2023-06-04T06:00:27;15.40;99.90
7934;DHT22;4012;48.896;9.192;2023-06-04T06:02:53;15.50;99.90
7934;DHT22;4012;48.896;9.192;2023-06-04T06:05:19;15.80;99.90
7934;DHT22;4012;48.896;9.192;2023-06-04T06:07:46;16.10;99.90
7934;DHT22;4012;48.896;9.192;2023-06-04T06:10:12;16.30;99.90
7934;DHT22;4012;48.896;9.192;2023-06-04T06:12:38;16.80;99.90
7934;DHT22;4012;48.896;9.192;2023-06-04T06:15:04;17.00;99.90
7934;DHT22;4012;48.896;9.192;2023-06-04T06:17:31;17.80;99.90
7934;DHT22;4012;48.896;9.192;2023-06-04T06:19:58;18.70;99.90
7934;DHT22;4012;48.896;9.192;2023-06-04T06:22:23;20.30;99.90
7934;DHT22;4012;48.896;9.192;2023-06-04T06:24:49;21.40;99.90
7934;DHT22;4012;48.896;9.192;2023-06-04T06:27:15;21.90;99.90
7934;DHT22;4012;48.896;9.192;2023-06-04T06:29:41;22.40;99.90
7934;DHT22;4012;48.896;9.192;2023-06-04T06:32:08;22.70;99.90
7934;DHT22;4012;48.896;9.192;2023-06-04T06:34:33;22.70;99.90
7934;DHT22;4012;48.896;9.192;2023-06-04T06:36:59;23.20;99.90
7934;DHT22;4012;48.896;9.192;2023-06-04T06:39:25;23.40;99.90
7934;DHT22;4012;48.896;9.192;2023-06-04T06:41:50;24.10;99.90
7934;DHT22;4012;48.896;9.192;2023-06-04T06:44:16;23.60;99.90
7934;DHT22;4012;48.896;9.192;2023-06-04T06:46:42;23.20;99.90
7934;DHT22;4012;48.896;9.192;2023-06-04T06:49:07;24.00;99.90
7934;DHT22;4012;48.896;9.192;2023-06-04T06:51:33;25.20;99.90
7934;DHT22;4012;48.896;9.192;2023-06-04T06:53:59;25.40;99.90
7934;DHT22;4012;48.896;9.192;2023-06-04T06:56:24;27.00;99.90
7934;DHT22;4012;48.896;9.192;2023-06-04T06:58:51;26.10;99.60
7934;DHT22;4012;48.896;9.192;2023-06-04T07:01:17;25.10;99.90
7934;DHT22;4012;48.896;9.192;2023-06-04T07:03:42;25.40;99.60
7934;DHT22;4012;48.896;9.192;2023-06-04T07:06:08;25.30;99.40
7934;DHT22;4012;48.896;9.192;2023-06-04T07:08:34;26.00;98.10
7934;DHT22;4012;48.896;9.192;2023-06-04T07:11:02;26.00;97.70
7934;DHT22;4012;48.896;9.192;2023-06-04T07:13:28;25.50;98.10
7934;DHT22;4012;48.896;9.192;2023-06-04T07:15:53;25.70;96.80
7934;DHT22;4012;48.896;9.192;2023-06-04T07:18:19;26.40;96.80
7934;DHT22;4012;48.896;9.192;2023-06-04T07:20:45;26.60;95.70
7934;DHT22;4012;48.896;9.192;2023-06-04T07:23:11;27.10;95.20
7934;DHT22;4012;48.896;9.192;2023-06-04T07:25:36;27.30;93.20
7934;DHT22;4012;48.896;9.192;2023-06-04T07:28:02;26.10;92.50
7934;DHT22;4012;48.896;9.192;2023-06-04T07:30:32;26.40;93.90
7934;DHT22;4012;48.896;9.192;2023-06-04T07:32:57;30.30;91.10
7934;DHT22;4012;48.896;9.192;2023-06-04T07:35:23;30.40;87.70
7934;DHT22;4012;48.896;9.192;2023-06-04T07:37:49;26.60;91.10
7934;DHT22;4012;48.896;9.192;2023-06-04T07:40:16;26.00;92.20
7934;DHT22;4012;48.896;9.192;2023-06-04T07:42:42;25.60;93.60
7934;DHT22;4012;48.896;9.192;2023-06-04T07:45:08;25.80;92.80
7934;DHT22;4012;48.896;9.192;2023-06-04T07:47:36;26.80;92.70
7934;DHT22;4012;48.896;9.192;2023-06-04T07:50:05;26.80;93.30
7934;DHT22;4012;48.896;9.192;2023-06-04T07:52:31;26.20;92.50
7934;DHT22;4012;48.896;9.192;2023-06-04T07:54:57;25.80;93.80
7934;DHT22;4012;48.896;9.192;2023-06-04T07:57:23;24.70;94.40
7934;DHT22;4012;48.896;9.192;2023-06-04T07:59:49;24.70;95.20
7934;DHT22;4012;48.896;9.192;2023-06-04T08:02:15;23.90;95.40
7934;DHT22;4012;48.896;9.192;2023-06-04T08:04:41;25.50;95.80
7934;DHT22;4012;48.896;9.192;2023-06-04T08:07:06;29.30;92.20
7934;DHT22;4012;48.896;9.192;2023-06-04T08:09:32;29.10;91.30
7934;DHT22;4012;48.896;9.192;2023-06-04T08:11:58;26.80;93.00
7934;DHT22;4012;48.896;9.192;2023-06-04T08:14:23;28.50;93.00
7934;DHT22;4012;48.896;9.192;2023-06-04T08:16:52;26.00;92.70
7934;DHT22;4012;48.896;9.192;2023-06-04T08:19:18;24.10;95.10
7934;DHT22;4012;48.896;9.192;2023-06-04T08:21:43;23.50;96.20
7934;DHT22;4012;48.896;9.192;2023-06-04T08:24:10;26.00;96.00
7934;DHT22;4012;48.896;9.192;2023-06-04T08:26:36;27.00;94.40
7934;DHT22;4012;48.896;9.192;2023-06-04T08:29:04;28.60;92.80
7934;DHT22;4012;48.896;9.192;2023-06-04T08:31:30;29.90;92.00
7934;DHT22;4012;48.896;9.192;2023-06-04T08:33:56;27.80;92.10
7934;DHT22;4012;48.896;9.192;2023-06-04T08:36:21;27.10;92.60
7934;DHT22;4012;48.896;9.192;2023-06-04T08:38:47;27.50;92.90
7934;DHT22;4012;48.896;9.192;2023-06-04T08:41:35;26.70;92.60
7934;DHT22;4012;48.896;9.192;2023-06-04T08:44:05;26.30;94.70
7934;DHT22;4012;48.896;9.192;2023-06-04T08:46:32;27.80;93.70
7934;DHT22;4012;48.896;9.192;2023-06-04T08:49:00;28.70;92.80
7934;DHT22;4012;48.896;9.192;2023-06-04T08:51:28;28.50;92.70
7934;DHT22;4012;48.896;9.192;2023-06-04T08:53:55;28.30;91.60
7934;DHT22;4012;48.896;9.192;2023-06-04T08:56:22;28.70;92.50
7934;DHT22;4012;48.896;9.192;2023-06-04T08:58:48;28.70;91.50
7934;DHT22;4012;48.896;9.192;2023-06-04T09:01:14;27.70;91.00
7934;DHT22;4012;48.896;9.192;2023-06-04T09:03:41;27.50;91.40
7934;DHT22;4012;48.896;9.192;2023-06-04T09:06:07;29.00;90.60
7934;DHT22;4012;48.896;9.192;2023-06-04T09:08:37;28.50;89.80
7934;DHT22;4012;48.896;9.192;2023-06-04T09:11:08;28.90;90.10
7934;DHT22;4012;48.896;9.192;2023-06-04T09:13:36;28.10;89.40
7934;DHT22;4012;48.896;9.192;2023-06-04T09:16:03;30.10;87.60
7934;DHT22;4012;48.896;9.192;2023-06-04T09:18:29;30.70;84.80
7934;DHT22;4012;48.896;9.192;2023-06-04T09:21:02;28.10;85.80
7934;DHT22;4012;48.896;9.192;2023-06-04T09:23:28;29.00;87.40
7934;DHT22;4012;48.896;9.192;2023-06-04T09:25:54;30.10;85.90
7934;DHT22;4012;48.896;9.192;2023-06-04T09:28:20;29.10;85.60
7934;DHT22;4012;48.896;9.192;2023-06-04T09:30:55;28.40;85.50
7934;DHT22;4012;48.896;9.192;2023-06-04T09:33:20;29.70;85.50
7934;DHT22;4012;48.896;9.192;2023-06-04T09:35:58;28.60;84.70
7934;DHT22;4012;48.896;9.192;2023-06-04T09:38:36;28.70;83.90
7934;DHT22;4012;48.896;9.192;2023-06-04T09:41:02;28.70;83.90
7934;DHT22;4012;48.896;9.192;2023-06-04T09:43:32;28.50;85.20
7934;DHT22;4012;48.896;9.192;2023-06-04T09:46:17;27.90;85.10
7934;DHT22;4012;48.896;9.192;2023-06-04T09:48:44;28.30;85.50
7934;DHT22;4012;48.896;9.192;2023-06-04T09:51:14;29.00;83.70
7934;DHT22;4012;48.896;9.192;2023-06-04T09:53:54;29.10;83.10
7934;DHT22;4012;48.896;9.192;2023-06-04T09:56:20;29.00;82.70
7934;DHT22;4012;48.896;9.192;2023-06-04T09:58:49;29.40;82.90
7934;DHT22;4012;48.896;9.192;2023-06-04T10:01:15;29.90;80.90
7934;DHT22;4012;48.896;9.192;2023-06-04T10:03:47;30.00;81.90
7934;DHT22;4012;48.896;9.192;2023-06-04T10:06:15;29.20;81.30
7934;DHT22;4012;48.896;9.192;2023-06-04T10:08:42;28.40;82.60
7934;DHT22;4012;48.896;9.192;2023-06-04T10:11:11;28.10;83.50
7934;DHT22;4012;48.896;9.192;2023-06-04T10:13:45;27.80;83.00
7934;DHT22;4012;48.896;9.192;2023-06-04T10:16:13;29.00;82.20
7934;DHT22;4012;48.896;9.192;2023-06-04T10:18:40;28.90;82.00
7934;DHT22;4012;48.896;9.192;2023-06-04T10:21:06;28.70;83.50
7934;DHT22;4012;48.896;9.192;2023-06-04T10:23:33;28.70;83.20
7934;DHT22;4012;48.896;9.192;2023-06-04T10:25:59;29.00;82.30
7934;DHT22;4012;48.896;9.192;2023-06-04T10:28:26;28.30;81.50
7934;DHT22;4012;48.896;9.192;2023-06-04T10:30:51;28.40;81.30
7934;DHT22;4012;48.896;9.192;2023-06-04T10:33:21;28.60;81.10
7934;DHT22;4012;48.896;9.192;2023-06-04T10:35:53;28.20;82.00
7934;DHT22;4012;48.896;9.192;2023-06-04T10:38:19;27.30;83.40
7934;DHT22;4012;48.896;9.192;2023-06-04T10:40:46;26.80;83.90
7934;DHT22;4012;48.896;9.192;2023-06-04T10:43:13;27.00;82.70
7934;DHT22;4012;48.896;9.192;2023-06-04T10:45:41;26.90;82.10
7934;DHT22;4012;48.896;9.192;2023-06-04T10:48:08;27.40;82.20
7934;DHT22;4012;48.896;9.192;2023-06-04T10:50:35;26.70;82.00
7934;DHT22;4012;48.896;9.192;2023-06-04T10:53:12;26.50;81.80
7934;DHT22;4012;48.896;9.192;2023-06-04T10:55:45;26.20;82.80
7934;DHT22;4012;48.896;9.192;2023-06-04T10:58:11;26.70;83.50
7934;DHT22;4012;48.896;9.192;2023-06-04T11:00:41;27.10;81.00
7934;DHT22;4012;48.896;9.192;2023-06-04T11:03:09;26.30;80.70
7934;DHT22;4012;48.896;9.192;2023-06-04T11:05:43;26.20;81.70
7934;DHT22;4012;48.896;9.192;2023-06-04T11:08:10;25.90;81.60
7934;DHT22;4012;48.896;9.192;2023-06-04T11:10:45;25.50;83.00
7934;DHT22;4012;48.896;9.192;2023-06-04T11:13:12;25.00;84.00
7934;DHT22;4012;48.896;9.192;2023-06-04T11:15:45;25.50;83.00
7934;DHT22;4012;48.896;9.192;2023-06-04T11:18:16;26.00;82.30
7934;DHT22;4012;48.896;9.192;2023-06-04T11:20:47;25.90;82.30
7934;DHT22;4012;48.896;9.192;2023-06-04T11:23:14;26.50;83.60
7934;DHT22;4012;48.896;9.192;2023-06-04T11:25:41;26.40;83.40
7934;DHT22;4012;48.896;9.192;2023-06-04T11:28:14;26.60;82.30
7934;DHT22;4012;48.896;9.192;2023-06-04T11:30:40;26.80;81.50
7934;DHT22;4012;48.896;9.192;2023-06-04T11:33:06;25.40;83.40
7934;DHT22;4012;48.896;9.192;2023-06-04T11:35:42;25.70;84.50
7934;DHT22;4012;48.896;9.192;2023-06-04T11:38:09;26.30;82.70
7934;DHT22;4012;48.896;9.192;2023-06-04T11:40:35;26.40;83.20
7934;DHT22;4012;48.896;9.192;2023-06-04T11:43:01;26.50;83.40
7934;DHT22;4012;48.896;9.192;2023-06-04T11:45:27;26.40;82.30
7934;DHT22;4012;48.896;9.192;2023-06-04T11:47:56;26.20;82.00
7934;DHT22;4012;48.896;9.192;2023-06-04T11:50:23;26.10;81.60
7934;DHT22;4012;48.896;9.192;2023-06-04T11:52:52;25.80;83.10
7934;DHT22;4012;48.896;9.192;2023-06-04T11:55:18;25.70;84.40
7934;DHT22;4012;48.896;9.192;2023-06-04T11:57:48;26.60;82.50
7934;DHT22;4012;48.896;9.192;2023-06-04T12:00:15;26.20;82.50
7934;DHT22;4012;48.896;9.192;2023-06-04T12:02:54;26.60;82.90
7934;DHT22;4012;48.896;9.192;2023-06-04T12:05:39;26.30;82.20
7934;DHT22;4012;48.896;9.192;2023-06-04T12:08:09;26.50;83.40
7934;DHT22;4012;48.896;9.192;2023-06-04T12:10:40;26.40;81.30
7934;DHT22;4012;48.896;9.192;2023-06-04T12:13:06;26.00;81.80
7934;DHT22;4012;48.896;9.192;2023-06-04T12:15:32;26.20;81.70
7934;DHT22;4012;48.896;9.192;2023-06-04T12:17:58;25.80;81.80
7934;DHT22;4012;48.896;9.192;2023-06-04T12:20:37;26.30;82.60
7934;DHT22;4012;48.896;9.192;2023-06-04T12:23:04;26.40;81.60
7934;DHT22;4012;48.896;9.192;2023-06-04T12:25:31;25.90;81.30
7934;DHT22;4012;48.896;9.192;2023-06-04T12:27:57;26.20;81.40
7934;DHT22;4012;48.896;9.192;2023-06-04T12:30:23;26.40;81.20
7934;DHT22;4012;48.896;9.192;2023-06-04T12:32:48;26.30;81.20
7934;DHT22;4012;48.896;9.192;2023-06-04T12:35:14;26.20;81.90
7934;DHT22;4012;48.896;9.192;2023-06-04T12:37:41;26.20;81.80
7934;DHT22;4012;48.896;9.192;2023-06-04T12:40:07;26.60;81.40
7934;DHT22;4012;48.896;9.192;2023-06-04T12:42:34;26.20;80.40
7934;DHT22;4012;48.896;9.192;2023-06-04T12:44:59;26.40;81.40
7934;DHT22;4012;48.896;9.192;2023-06-04T12:47:25;26.00;80.90
7934;DHT22;4012;48.896;9.192;2023-06-04T12:49:51;25.80;81.20
7934;DHT22;4012;48.896;9.192;2023-06-04T12:52:17;25.90;80.80
7934;DHT22;4012;48.896;9.192;2023-06-04T12:54:43;25.80;80.50
7934;DHT22;4012;48.896;9.192;2023-06-04T12:57:09;25.90;80.00
7934;DHT22;4012;48.896;9.192;2023-06-04T12:59:35;26.10;79.70
7934;DHT22;4012;48.896;9.192;2023-06-04T13:02:01;25.90;80.10
7934;DHT22;4012;48.896;9.192;2023-06-04T13:04:26;26.30;79.80
7934;DHT22;4012;48.896;9.192;2023-06-04T13:06:52;25.90;79.10
7934;DHT22;4012;48.896;9.192;2023-06-04T13:09:21;26.10;80.50
7934;DHT22;4012;48.896;9.192;2023-06-04T13:11:48;26.70;80.20
7934;DHT22;4012;48.896;9.192;2023-06-04T13:14:14;26.40;79.10
7934;DHT22;4012;48.896;9.192;2023-06-04T13:16:40;26.50;78.10
7934;DHT22;4012;48.896;9.192;2023-06-04T13:19:06;26.60;78.60
7934;DHT22;4012;48.896;9.192;2023-06-04T13:21:32;26.00;77.90
7934;DHT22;4012;48.896;9.192;2023-06-04T13:23:58;26.00;78.60
7934;DHT22;4012;48.896;9.192;2023-06-04T13:26:24;26.00;79.00
7934;DHT22;4012;48.896;9.192;2023-06-04T13:28:51;26.40;77.50
7934;DHT22;4012;48.896;9.192;2023-06-04T13:31:16;26.20;77.30
7934;DHT22;4012;48.896;9.192;2023-06-04T13:33:42;26.30;77.70
7934;DHT22;4012;48.896;9.192;2023-06-04T13:36:08;26.10;76.90
7934;DHT22;4012;48.896;9.192;2023-06-04T13:38:34;25.90;77.80
7934;DHT22;4012;48.896;9.192;2023-06-04T13:40:59;26.30;77.60
7934;DHT22;4012;48.896;9.192;2023-06-04T13:43:25;26.00;77.00
7934;DHT22;4012;48.896;9.192;2023-06-04T13:45:51;26.30;76.90
7934;DHT22;4012;48.896;9.192;2023-06-04T13:48:17;26.50;77.00
7934;DHT22;4012;48.896;9.192;2023-06-04T13:50:42;26.40;76.80
7934;DHT22;4012;48.896;9.192;2023-06-04T13:53:09;26.20;77.20
7934;DHT22;4012;48.896;9.192;2023-06-04T13:55:34;26.50;76.40
7934;DHT22;4012;48.896;9.192;2023-06-04T13:58:00;26.20;75.70
7934;DHT22;4012;48.896;9.192;2023-06-04T14:00:26;26.30;75.80
7934;DHT22;4012;48.896;9.192;2023-06-04T14:02:52;26.30;76.80
7934;DHT22;4012;48.896;9.192;2023-06-04T14:05:20;26.30;76.90
7934;DHT22;4012;48.896;9.192;2023-06-04T14:07:46;26.00;77.00
7934;DHT22;4012;48.896;9.192;2023-06-04T14:10:12;26.20;76.00
7934;DHT22;4012;48.896;9.192;2023-06-04T14:12:38;26.10;75.50
7934;DHT22;4012;48.896;9.192;2023-06-04T14:15:06;26.00;75.90
7934;DHT22;4012;48.896;9.192;2023-06-04T14:17:32;26.20;76.20
7934;DHT22;4012;48.896;9.192;2023-06-04T14:19:59;26.40;77.00
7934;DHT22;4012;48.896;9.192;2023-06-04T14:22:25;26.60;76.90
7934;DHT22;4012;48.896;9.192;2023-06-04T14:24:51;26.40;75.60
7934;DHT22;4012;48.896;9.192;2023-06-04T14:27:16;26.10;75.30
7934;DHT22;4012;48.896;9.192;2023-06-04T14:29:42;26.00;76.30
7934;DHT22;4012;48.896;9.192;2023-06-04T14:32:07;25.90;75.80
7934;DHT22;4012;48.896;9.192;2023-06-04T14:34:33;26.10;75.80
7934;DHT22;4012;48.896;9.192;2023-06-04T14:36:59;26.10;75.40
7934;DHT22;4012;48.896;9.192;2023-06-04T14:39:28;26.00;75.70
7934;DHT22;4012;48.896;9.192;2023-06-04T14:41:54;26.10;74.30
7934;DHT22;4012;48.896;9.192;2023-06-04T14:44:20;26.00;75.00
7934;DHT22;4012;48.896;9.192;2023-06-04T14:46:46;25.90;75.80
7934;DHT22;4012;48.896;9.192;2023-06-04T14:49:12;25.90;75.60
7934;DHT22;4012;48.896;9.192;2023-06-04T14:51:38;25.50;74.40
7934;DHT22;4012;48.896;9.192;2023-06-04T14:54:03;25.20;75.40
7934;DHT22;4012;48.896;9.192;2023-06-04T14:56:29;25.50;75.60
7934;DHT22;4012;48.896;9.192;2023-06-04T14:58:56;25.60;75.10
7934;DHT22;4012;48.896;9.192;2023-06-04T15:01:21;25.70;74.90
7934;DHT22;4012;48.896;9.192;2023-06-04T15:03:50;26.10;74.80
7934;DHT22;4012;48.896;9.192;2023-06-04T15:06:16;26.40;74.40
7934;DHT22;4012;48.896;9.192;2023-06-04T15:08:41;26.00;73.80
7934;DHT22;4012;48.896;9.192;2023-06-04T15:11:07;25.70;71.90
7934;DHT22;4012;48.896;9.192;2023-06-04T15:13:32;25.80;73.30
7934;DHT22;4012;48.896;9.192;2023-06-04T15:15:58;25.80;74.40
7934;DHT22;4012;48.896;9.192;2023-06-04T15:18:24;25.90;75.10
7934;DHT22;4012;48.896;9.192;2023-06-04T15:20:49;26.00;75.80
7934;DHT22;4012;48.896;9.192;2023-06-04T15:23:15;25.70;75.00
7934;DHT22;4012;48.896;9.192;2023-06-04T15:25:43;25.40;74.80
7934;DHT22;4012;48.896;9.192;2023-06-04T15:28:09;25.70;75.30
7934;DHT22;4012;48.896;9.192;2023-06-04T15:30:34;25.80;74.70
7934;DHT22;4012;48.896;9.192;2023-06-04T15:33:00;26.00;75.20
7934;DHT22;4012;48.896;9.192;2023-06-04T15:35:27;25.90;76.10
7934;DHT22;4012;48.896;9.192;2023-06-04T15:37:53;25.90;76.10
7934;DHT22;4012;48.896;9.192;2023-06-04T15:40:18;25.60;75.40
7934;DHT22;4012;48.896;9.192;2023-06-04T15:42:44;25.70;75.50
7934;DHT22;4012;48.896;9.192;2023-06-04T15:45:10;25.80;75.70
7934;DHT22;4012;48.896;9.192;2023-06-04T15:47:36;25.70;75.10
7934;DHT22;4012;48.896;9.192;2023-06-04T15:50:01;25.90;75.90
7934;DHT22;4012;48.896;9.192;2023-06-04T15:52:27;25.90;75.30
7934;DHT22;4012;48.896;9.192;2023-06-04T15:54:52;25.80;76.20
7934;DHT22;4012;48.896;9.192;2023-06-04T15:57:18;25.50;75.50
7934;DHT22;4012;48.896;9.192;2023-06-04T15:59:43;25.60;75.30
7934;DHT22;4012;48.896;9.192;2023-06-04T16:02:10;25.70;73.90
7934;DHT22;4012;48.896;9.192;2023-06-04T16:04:36;25.50;73.90